sensor_id;sensor_type;location;lat;lon;timestamp;P1;durP1;ratioP1;P2;durP2;ratioP2
46505;SDS011;32220;49.808;9.968;2022-10-16T08:45:34;1.93;;;1.73;;
46505;SDS011;32220;49.808;9.968;2022-10-16T08:48:16;1.93;;;1.37;;
46505;SDS011;32220;49.808;9.968;2022-10-16T08:50:52;4.37;;;1.83;;
46505;SDS011;32220;49.808;9.968;2022-10-16T08:53:22;2.90;;;1.40;;
46505;SDS011;32220;49.808;9.968;2022-10-16T08:55:55;1.40;;;1.30;;
46505;SDS011;32220;49.808;9.968;2022-10-16T08:58:26;2.27;;;1.30;;
46505;SDS011;32220;49.808;9.968;2022-10-16T09:00:59;1.33;;;1.07;;
46505;SDS011;32220;49.808;9.968;2022-10-16T09:03:32;2.63;;;1.13;;
46505;SDS011;32220;49.808;9.968;2022-10-16T09:06:14;1.53;;;1.10;;
46505;SDS011;32220;49.808;9.968;2022-10-16T09:09:02;1.07;;;0.97;;
46505;SDS011;32220;49.808;9.968;2022-10-16T09:11:43;2.27;;;1.20;;
46505;SDS011;32220;49.808;9.968;2022-10-16T09:14:31;2.53;;;1.40;;
46505;SDS011;32220;49.808;9.968;2022-10-16T09:17:16;1.23;;;1.20;;
46505;SDS011;32220;49.808;9.968;2022-10-16T09:19:55;1.10;;;1.10;;
46505;SDS011;32220;49.808;9.968;2022-10-16T09:22:40;1.47;;;1.07;;
46505;SDS011;32220;49.808;9.968;2022-10-16T09:25:10;2.20;;;1.40;;
46505;SDS011;32220;49.808;9.968;2022-10-16T09:27:39;5.03;;;1.40;;
46505;SDS011;32220;49.808;9.968;2022-10-16T09:30:12;1.20;;;1.10;;
46505;SDS011;32220;49.808;9.968;2022-10-16T09:32:43;4.43;;;1.50;;
46505;SDS011;32220;49.808;9.968;2022-10-16T09:35:14;2.70;;;1.40;;
46505;SDS011;32220;49.808;9.968;2022-10-16T09:37:45;2.10;;;1.27;;
46505;SDS011;32220;49.808;9.968;2022-10-16T09:40:23;1.30;;;1.20;;
46505;SDS011;32220;49.808;9.968;2022-10-16T09:42:55;1.40;;;1.30;;
46505;SDS011;32220;49.808;9.968;2022-10-16T09:45:30;1.93;;;1.20;;
46505;SDS011;32220;49.808;9.968;2022-10-16T09:48:00;2.73;;;1.07;;
46505;SDS011;32220;49.808;9.968;2022-10-16T09:50:37;3.10;;;1.20;;
46505;SDS011;32220;49.808;9.968;2022-10-16T09:53:07;1.20;;;1.10;;
46505;SDS011;32220;49.808;9.968;2022-10-16T09:55:47;4.60;;;1.20;;
46505;SDS011;32220;49.808;9.968;2022-10-16T09:58:16;2.73;;;1.50;;
46505;SDS011;32220;49.808;9.968;2022-10-16T10:00:48;1.20;;;1.10;;
46505;SDS011;32220;49.808;9.968;2022-10-16T10:03:26;1.50;;;1.03;;
46505;SDS011;32220;49.808;9.968;2022-10-16T10:06:05;1.83;;;1.10;;
46505;SDS011;32220;49.808;9.968;2022-10-16T10:09:04;1.50;;;1.00;;
46505;SDS011;32220;49.808;9.968;2022-10-16T10:11:40;1.13;;;1.03;;
46505;SDS011;32220;49.808;9.968;2022-10-16T10:14:24;1.93;;;1.27;;
46505;SDS011;32220;49.808;9.968;2022-10-16T10:17:02;1.70;;;1.40;;
46505;SDS011;32220;49.808;9.968;2022-10-16T10:19:39;3.90;;;1.23;;
46505;SDS011;32220;49.808;9.968;2022-10-16T10:22:25;2.40;;;1.20;;
46505;SDS011;32220;49.808;9.968;2022-10-16T10:28:01;2.00;;;1.20;;
46505;SDS011;32220;49.808;9.968;2022-10-16T10:30:47;1.40;;;1.30;;
46505;SDS011;32220;49.808;9.968;2022-10-16T10:33:25;1.53;;;1.20;;
46505;SDS011;32220;49.808;9.968;2022-10-16T10:36:03;1.97;;;1.23;;
46505;SDS011;32220;49.808;9.968;2022-10-16T10:38:41;4.53;;;1.40;;
46505;SDS011;32220;49.808;9.968;2022-10-16T10:44:23;1.90;;;1.50;;
46505;SDS011;32220;49.808;9.968;2022-10-16T10:47:06;1.53;;;1.43;;
46505;SDS011;32220;49.808;9.968;2022-10-16T10:49:47;1.40;;;1.30;;
46505;SDS011;32220;49.808;9.968;2022-10-16T10:52:34;3.60;;;1.43;;
46505;SDS011;32220;49.808;9.968;2022-10-16T10:55:11;2.23;;;1.47;;
46505;SDS011;32220;49.808;9.968;2022-10-16T10:57:52;1.40;;;1.30;;
46505;SDS011;32220;49.808;9.968;2022-10-16T11:00:31;1.60;;;1.37;;
46505;SDS011;32220;49.808;9.968;2022-10-16T11:03:12;2.60;;;1.30;;
46505;SDS011;32220;49.808;9.968;2022-10-16T11:05:45;2.97;;;1.27;;
46505;SDS011;32220;49.808;9.968;2022-10-16T11:08:20;2.23;;;1.23;;
46505;SDS011;32220;49.808;9.968;2022-10-16T11:10:54;1.73;;;1.30;;
46505;SDS011;32220;49.808;9.968;2022-10-16T11:13:30;1.47;;;1.30;;
46505;SDS011;32220;49.808;9.968;2022-10-16T11:16:02;2.13;;;1.10;;
46505;SDS011;32220;49.808;9.968;2022-10-16T11:18:40;1.53;;;1.43;;
46505;SDS011;32220;49.808;9.968;2022-10-16T11:21:16;1.50;;;1.03;;
46505;SDS011;32220;49.808;9.968;2022-10-16T11:23:48;2.33;;;1.03;;
46505;SDS011;32220;49.808;9.968;2022-10-16T11:26:23;1.23;;;1.15;;
46505;SDS011;32220;49.808;9.968;2022-10-16T11:28:54;2.78;;;0.90;;
46505;SDS011;32220;49.808;9.968;2022-10-16T11:31:27;1.23;;;0.90;;
46505;SDS011;32220;49.808;9.968;2022-10-16T11:34:01;1.30;;;0.90;;
46505;SDS011;32220;49.808;9.968;2022-10-16T11:36:35;1.73;;;0.77;;
46505;SDS011;32220;49.808;9.968;2022-10-16T11:39:11;1.35;;;1.00;;
46505;SDS011;32220;49.808;9.968;2022-10-16T11:41:47;1.20;;;1.08;;
46505;SDS011;32220;49.808;9.968;2022-10-16T11:44:25;1.10;;;1.00;;
46505;SDS011;32220;49.808;9.968;2022-10-16T11:47:03;1.30;;;0.75;;
46505;SDS011;32220;49.808;9.968;2022-10-16T11:49:39;1.10;;;1.00;;
46505;SDS011;32220;49.808;9.968;2022-10-16T11:52:11;1.58;;;0.90;;
46505;SDS011;32220;49.808;9.968;2022-10-16T11:54:47;1.67;;;0.98;;
46505;SDS011;32220;49.808;9.968;2022-10-16T11:57:19;1.15;;;1.00;;
46505;SDS011;32220;49.808;9.968;2022-10-16T11:59:51;1.58;;;0.82;;
46505;SDS011;32220;49.808;9.968;2022-10-16T12:02:30;0.80;;;0.80;;
46505;SDS011;32220;49.808;9.968;2022-10-16T12:05:11;2.95;;;0.82;;
46505;SDS011;32220;49.808;9.968;2022-10-16T12:07:47;0.93;;;0.73;;
46505;SDS011;32220;49.808;9.968;2022-10-16T12:10:22;0.77;;;0.77;;
46505;SDS011;32220;49.808;9.968;2022-10-16T12:12:53;1.92;;;1.00;;
46505;SDS011;32220;49.808;9.968;2022-10-16T12:15:23;1.63;;;0.80;;
46505;SDS011;32220;49.808;9.968;2022-10-16T12:17:53;0.98;;;0.70;;
46505;SDS011;32220;49.808;9.968;2022-10-16T12:20:22;1.33;;;0.80;;
46505;SDS011;32220;49.808;9.968;2022-10-16T12:22:56;1.50;;;0.85;;
46505;SDS011;32220;49.808;9.968;2022-10-16T12:25:28;1.00;;;0.80;;
46505;SDS011;32220;49.808;9.968;2022-10-16T12:27:59;1.70;;;1.42;;
46505;SDS011;32220;49.808;9.968;2022-10-16T12:30:29;1.88;;;1.20;;
46505;SDS011;32220;49.808;9.968;2022-10-16T12:33:00;3.13;;;1.25;;
46505;SDS011;32220;49.808;9.968;2022-10-16T12:35:30;0.90;;;0.90;;
46505;SDS011;32220;49.808;9.968;2022-10-16T12:38:15;1.20;;;1.00;;
46505;SDS011;32220;49.808;9.968;2022-10-16T12:40:46;1.20;;;1.20;;
46505;SDS011;32220;49.808;9.968;2022-10-16T12:43:26;1.93;;;1.00;;
46505;SDS011;32220;49.808;9.968;2022-10-16T12:46:03;1.03;;;1.00;;
46505;SDS011;32220;49.808;9.968;2022-10-16T12:48:33;1.03;;;1.00;;
46505;SDS011;32220;49.808;9.968;2022-10-16T12:51:09;1.20;;;1.10;;
46505;SDS011;32220;49.808;9.968;2022-10-16T12:53:38;1.73;;;1.07;;
46505;SDS011;32220;49.808;9.968;2022-10-16T12:56:11;1.10;;;1.00;;
46505;SDS011;32220;49.808;9.968;2022-10-16T12:58:51;1.30;;;1.20;;
46505;SDS011;32220;49.808;9.968;2022-10-16T13:01:31;1.30;;;1.10;;
46505;SDS011;32220;49.808;9.968;2022-10-16T13:07:21;2.07;;;1.10;;
46505;SDS011;32220;49.808;9.968;2022-10-16T13:10:09;1.43;;;1.00;;
46505;SDS011;32220;49.808;9.968;2022-10-16T13:12:54;1.40;;;1.23;;
46505;SDS011;32220;49.808;9.968;2022-10-16T13:15:45;1.23;;;0.90;;
46505;SDS011;32220;49.808;9.968;2022-10-16T13:18:22;1.80;;;1.03;;
46505;SDS011;32220;49.808;9.968;2022-10-16T13:21:01;2.30;;;1.50;;
46505;SDS011;32220;49.808;9.968;2022-10-16T13:23:39;2.70;;;1.67;;
46505;SDS011;32220;49.808;9.968;2022-10-16T13:26:17;3.83;;;1.03;;
46505;SDS011;32220;49.808;9.968;2022-10-16T13:28:56;4.97;;;1.50;;
46505;SDS011;32220;49.808;9.968;2022-10-16T13:31:26;2.33;;;1.30;;
46505;SDS011;32220;49.808;9.968;2022-10-16T13:33:56;1.87;;;1.07;;
46505;SDS011;32220;49.808;9.968;2022-10-16T13:36:26;2.80;;;1.10;;
46505;SDS011;32220;49.808;9.968;2022-10-16T13:39:00;4.70;;;1.40;;
46505;SDS011;32220;49.808;9.968;2022-10-16T13:41:34;1.53;;;1.07;;
46505;SDS011;32220;49.808;9.968;2022-10-16T13:44:04;1.20;;;1.10;;
46505;SDS011;32220;49.808;9.968;2022-10-16T13:46:38;2.83;;;1.20;;
46505;SDS011;32220;49.808;9.968;2022-10-16T13:49:11;1.30;;;1.20;;
46505;SDS011;32220;49.808;9.968;2022-10-16T13:51:41;1.57;;;1.33;;
46505;SDS011;32220;49.808;9.968;2022-10-16T13:54:09;1.40;;;1.10;;
46505;SDS011;32220;49.808;9.968;2022-10-16T13:56:38;1.17;;;1.07;;
46505;SDS011;32220;49.808;9.968;2022-10-16T13:59:22;1.53;;;1.10;;
46505;SDS011;32220;49.808;9.968;2022-10-16T14:01:52;1.40;;;1.03;;
46505;SDS011;32220;49.808;9.968;2022-10-16T14:04:23;1.53;;;1.03;;
46505;SDS011;32220;49.808;9.968;2022-10-16T14:06:52;1.37;;;1.23;;
46505;SDS011;32220;49.808;9.968;2022-10-16T14:09:21;1.30;;;1.00;;
46505;SDS011;32220;49.808;9.968;2022-10-16T14:11:56;2.00;;;1.73;;
46505;SDS011;32220;49.808;9.968;2022-10-16T14:14:30;1.83;;;1.00;;
46505;SDS011;32220;49.808;9.968;2022-10-16T14:17:02;1.70;;;1.20;;
46505;SDS011;32220;49.808;9.968;2022-10-16T14:19:30;3.63;;;1.20;;
46505;SDS011;32220;49.808;9.968;2022-10-16T14:21:58;0.83;;;0.83;;
46505;SDS011;32220;49.808;9.968;2022-10-16T14:24:31;4.43;;;0.70;;
46505;SDS011;32220;49.808;9.968;2022-10-16T14:27:00;2.60;;;1.40;;
46505;SDS011;32220;49.808;9.968;2022-10-16T14:29:30;1.60;;;1.27;;
46505;SDS011;32220;49.808;9.968;2022-10-16T14:31:59;2.57;;;1.10;;
46505;SDS011;32220;49.808;9.968;2022-10-16T14:34:29;1.47;;;1.10;;
46505;SDS011;32220;49.808;9.968;2022-10-16T14:36:59;1.40;;;1.27;;
46505;SDS011;32220;49.808;9.968;2022-10-16T14:39:33;1.00;;;1.00;;
46505;SDS011;32220;49.808;9.968;2022-10-16T14:42:01;0.80;;;0.80;;
46505;SDS011;32220;49.808;9.968;2022-10-16T14:44:31;1.30;;;1.20;;
46505;SDS011;32220;49.808;9.968;2022-10-16T14:47:07;1.20;;;1.00;;
46505;SDS011;32220;49.808;9.968;2022-10-16T14:49:36;0.97;;;0.97;;
46505;SDS011;32220;49.808;9.968;2022-10-16T14:52:07;2.83;;;1.10;;
46505;SDS011;32220;49.808;9.968;2022-10-16T14:54:37;2.27;;;1.53;;
46505;SDS011;32220;49.808;9.968;2022-10-16T14:57:05;1.70;;;1.50;;
46505;SDS011;32220;49.808;9.968;2022-10-16T14:59:45;1.47;;;1.37;;
46505;SDS011;32220;49.808;9.968;2022-10-16T15:02:18;1.33;;;1.20;;
46505;SDS011;32220;49.808;9.968;2022-10-16T15:04:50;1.37;;;1.17;;
46505;SDS011;32220;49.808;9.968;2022-10-16T15:07:17;1.17;;;1.07;;
46505;SDS011;32220;49.808;9.968;2022-10-16T15:09:46;1.20;;;1.00;;
46505;SDS011;32220;49.808;9.968;2022-10-16T15:12:14;1.50;;;1.17;;
46505;SDS011;32220;49.808;9.968;2022-10-16T15:14:42;1.70;;;1.40;;
46505;SDS011;32220;49.808;9.968;2022-10-16T15:17:11;2.27;;;1.70;;
46505;SDS011;32220;49.808;9.968;2022-10-16T15:19:39;2.33;;;2.13;;
46505;SDS011;32220;49.808;9.968;2022-10-16T15:22:08;1.47;;;1.37;;
46505;SDS011;32220;49.808;9.968;2022-10-16T15:24:38;3.20;;;1.90;;
46505;SDS011;32220;49.808;9.968;2022-10-16T15:27:05;1.90;;;1.80;;
46505;SDS011;32220;49.808;9.968;2022-10-16T15:29:33;3.40;;;1.87;;
46505;SDS011;32220;49.808;9.968;2022-10-16T15:32:01;3.87;;;2.00;;
46505;SDS011;32220;49.808;9.968;2022-10-16T15:34:30;2.87;;;2.40;;
46505;SDS011;32220;49.808;9.968;2022-10-16T15:36:58;3.63;;;2.30;;
46505;SDS011;32220;49.808;9.968;2022-10-16T15:39:30;4.53;;;2.30;;
46505;SDS011;32220;49.808;9.968;2022-10-16T15:41:57;2.27;;;1.97;;
46505;SDS011;32220;49.808;9.968;2022-10-16T15:44:25;3.17;;;1.97;;
46505;SDS011;32220;49.808;9.968;2022-10-16T15:46:56;3.77;;;2.30;;
46505;SDS011;32220;49.808;9.968;2022-10-16T15:49:24;2.50;;;2.00;;
46505;SDS011;32220;49.808;9.968;2022-10-16T15:51:53;5.30;;;1.97;;
46505;SDS011;32220;49.808;9.968;2022-10-16T15:54:20;2.30;;;2.10;;
46505;SDS011;32220;49.808;9.968;2022-10-16T15:56:48;4.03;;;2.00;;
46505;SDS011;32220;49.808;9.968;2022-10-16T15:59:20;4.87;;;1.80;;
46505;SDS011;32220;49.808;9.968;2022-10-16T16:01:47;2.23;;;1.67;;
46505;SDS011;32220;49.808;9.968;2022-10-16T16:04:15;2.23;;;1.70;;
46505;SDS011;32220;49.808;9.968;2022-10-16T16:06:44;3.07;;;2.03;;
46505;SDS011;32220;49.808;9.968;2022-10-16T16:09:13;5.30;;;1.73;;
46505;SDS011;32220;49.808;9.968;2022-10-16T16:11:41;1.73;;;1.60;;
46505;SDS011;32220;49.808;9.968;2022-10-16T16:14:10;3.13;;;1.97;;
46505;SDS011;32220;49.808;9.968;2022-10-16T16:16:40;2.93;;;1.70;;
46505;SDS011;32220;49.808;9.968;2022-10-16T16:19:08;2.33;;;1.60;;
46505;SDS011;32220;49.808;9.968;2022-10-16T16:21:36;2.23;;;1.70;;
46505;SDS011;32220;49.808;9.968;2022-10-16T16:24:04;2.87;;;1.57;;
46505;SDS011;32220;49.808;9.968;2022-10-16T16:26:35;4.70;;;1.60;;
46505;SDS011;32220;49.808;9.968;2022-10-16T16:29:05;2.23;;;1.73;;
46505;SDS011;32220;49.808;9.968;2022-10-16T16:31:34;2.60;;;1.50;;
46505;SDS011;32220;49.808;9.968;2022-10-16T16:34:01;2.87;;;2.00;;
46505;SDS011;32220;49.808;9.968;2022-10-16T16:36:29;1.80;;;1.60;;
46505;SDS011;32220;49.808;9.968;2022-10-16T16:38:59;2.00;;;1.53;;
46505;SDS011;32220;49.808;9.968;2022-10-16T16:41:27;2.00;;;1.53;;
46505;SDS011;32220;49.808;9.968;2022-10-16T16:44:02;2.40;;;2.00;;
46505;SDS011;32220;49.808;9.968;2022-10-16T16:46:31;1.73;;;1.63;;
46505;SDS011;32220;49.808;9.968;2022-10-16T16:49:00;1.70;;;1.60;;
46505;SDS011;32220;49.808;9.968;2022-10-16T16:51:28;4.00;;;1.70;;
46505;SDS011;32220;49.808;9.968;2022-10-16T16:53:56;2.03;;;1.80;;
46505;SDS011;32220;49.808;9.968;2022-10-16T16:56:24;1.43;;;1.30;;
46505;SDS011;32220;49.808;9.968;2022-10-16T16:58:53;3.30;;;2.10;;
46505;SDS011;32220;49.808;9.968;2022-10-16T17:01:24;3.23;;;2.57;;
46505;SDS011;32220;49.808;9.968;2022-10-16T17:03:55;3.83;;;3.10;;
46505;SDS011;32220;49.808;9.968;2022-10-16T17:06:26;3.07;;;2.70;;
46505;SDS011;32220;49.808;9.968;2022-10-16T17:08:55;3.00;;;2.70;;
46505;SDS011;32220;49.808;9.968;2022-10-16T17:11:24;8.30;;;3.20;;
46505;SDS011;32220;49.808;9.968;2022-10-16T17:13:54;2.60;;;2.40;;
46505;SDS011;32220;49.808;9.968;2022-10-16T17:16:26;2.90;;;2.30;;
46505;SDS011;32220;49.808;9.968;2022-10-16T17:18:55;2.27;;;2.13;;
46505;SDS011;32220;49.808;9.968;2022-10-16T17:21:26;2.47;;;2.23;;
46505;SDS011;32220;49.808;9.968;2022-10-16T17:23:55;2.87;;;2.43;;
46505;SDS011;32220;49.808;9.968;2022-10-16T17:26:23;2.60;;;2.40;;
46505;SDS011;32220;49.808;9.968;2022-10-16T17:28:51;2.77;;;2.30;;
46505;SDS011;32220;49.808;9.968;2022-10-16T17:31:21;2.63;;;2.43;;
46505;SDS011;32220;49.808;9.968;2022-10-16T17:33:52;2.83;;;2.63;;
46505;SDS011;32220;49.808;9.968;2022-10-16T17:36:20;3.37;;;2.90;;
46505;SDS011;32220;49.808;9.968;2022-10-16T17:38:48;2.80;;;2.60;;
46505;SDS011;32220;49.808;9.968;2022-10-16T17:41:17;2.93;;;2.60;;
46505;SDS011;32220;49.808;9.968;2022-10-16T17:43:47;3.33;;;2.40;;
46505;SDS011;32220;49.808;9.968;2022-10-16T17:46:16;2.80;;;2.60;;
46505;SDS011;32220;49.808;9.968;2022-10-16T17:48:46;2.77;;;2.57;;
46505;SDS011;32220;49.808;9.968;2022-10-16T17:51:18;2.63;;;2.43;;
46505;SDS011;32220;49.808;9.968;2022-10-16T17:53:47;2.63;;;2.43;;
46505;SDS011;32220;49.808;9.968;2022-10-16T17:56:15;3.10;;;2.53;;
46505;SDS011;32220;49.808;9.968;2022-10-16T17:58:46;2.60;;;2.40;;
46505;SDS011;32220;49.808;9.968;2022-10-16T18:01:15;4.57;;;2.50;;
46505;SDS011;32220;49.808;9.968;2022-10-16T18:03:47;3.50;;;2.30;;
46505;SDS011;32220;49.808;9.968;2022-10-16T18:06:17;2.80;;;2.20;;
46505;SDS011;32220;49.808;9.968;2022-10-16T18:08:45;2.60;;;2.40;;
46505;SDS011;32220;49.808;9.968;2022-10-16T18:11:13;2.57;;;2.07;;
46505;SDS011;32220;49.808;9.968;2022-10-16T18:13:41;3.63;;;3.33;;
46505;SDS011;32220;49.808;9.968;2022-10-16T18:16:09;5.00;;;4.40;;
46505;SDS011;32220;49.808;9.968;2022-10-16T18:18:39;4.63;;;3.80;;
46505;SDS011;32220;49.808;9.968;2022-10-16T18:21:10;4.90;;;3.93;;
46505;SDS011;32220;49.808;9.968;2022-10-16T18:23:42;3.40;;;3.10;;
46505;SDS011;32220;49.808;9.968;2022-10-16T18:26:11;3.27;;;2.93;;
46505;SDS011;32220;49.808;9.968;2022-10-16T18:28:40;3.07;;;2.70;;
46505;SDS011;32220;49.808;9.968;2022-10-16T18:31:09;2.93;;;2.17;;
46505;SDS011;32220;49.808;9.968;2022-10-16T18:33:39;2.27;;;2.07;;
46505;SDS011;32220;49.808;9.968;2022-10-16T18:36:12;2.97;;;2.53;;
46505;SDS011;32220;49.808;9.968;2022-10-16T18:38:42;2.47;;;2.20;;
46505;SDS011;32220;49.808;9.968;2022-10-16T18:41:10;3.47;;;2.03;;
46505;SDS011;32220;49.808;9.968;2022-10-16T18:43:38;2.07;;;1.97;;
46505;SDS011;32220;49.808;9.968;2022-10-16T18:46:07;2.50;;;2.30;;
46505;SDS011;32220;49.808;9.968;2022-10-16T18:48:36;2.40;;;2.20;;
46505;SDS011;32220;49.808;9.968;2022-10-16T18:51:06;2.77;;;2.57;;
46505;SDS011;32220;49.808;9.968;2022-10-16T18:53:38;2.43;;;2.23;;
46505;SDS011;32220;49.808;9.968;2022-10-16T18:56:09;3.37;;;2.20;;
46505;SDS011;32220;49.808;9.968;2022-10-16T18:58:38;2.40;;;2.20;;
46505;SDS011;32220;49.808;9.968;2022-10-16T19:01:07;2.20;;;2.00;;
46505;SDS011;32220;49.808;9.968;2022-10-16T19:03:35;2.93;;;2.10;;
46505;SDS011;32220;49.808;9.968;2022-10-16T19:06:04;3.03;;;2.40;;
46505;SDS011;32220;49.808;9.968;2022-10-16T19:08:34;3.43;;;2.33;;
46505;SDS011;32220;49.808;9.968;2022-10-16T19:11:04;2.80;;;2.60;;
46505;SDS011;32220;49.808;9.968;2022-10-16T19:13:34;2.73;;;2.53;;
46505;SDS011;32220;49.808;9.968;2022-10-16T19:16:02;3.43;;;3.13;;
46505;SDS011;32220;49.808;9.968;2022-10-16T19:18:30;3.43;;;3.10;;
46505;SDS011;32220;49.808;9.968;2022-10-16T19:21:03;3.90;;;3.50;;
46505;SDS011;32220;49.808;9.968;2022-10-16T19:23:32;4.37;;;3.00;;
46505;SDS011;32220;49.808;9.968;2022-10-16T19:26:00;3.70;;;3.33;;
46505;SDS011;32220;49.808;9.968;2022-10-16T19:28:29;4.30;;;3.20;;
46505;SDS011;32220;49.808;9.968;2022-10-16T19:31:01;3.67;;;3.17;;
46505;SDS011;32220;49.808;9.968;2022-10-16T19:33:30;2.90;;;2.70;;
46505;SDS011;32220;49.808;9.968;2022-10-16T19:36:05;3.27;;;2.97;;
46505;SDS011;32220;49.808;9.968;2022-10-16T19:38:34;2.73;;;2.50;;
46505;SDS011;32220;49.808;9.968;2022-10-16T19:41:05;4.97;;;3.60;;
46505;SDS011;32220;49.808;9.968;2022-10-16T19:43:33;3.10;;;2.80;;
46505;SDS011;32220;49.808;9.968;2022-10-16T19:46:03;2.43;;;2.23;;
46505;SDS011;32220;49.808;9.968;2022-10-16T19:48:32;2.60;;;2.40;;
46505;SDS011;32220;49.808;9.968;2022-10-16T19:51:01;2.80;;;2.60;;
46505;SDS011;32220;49.808;9.968;2022-10-16T19:53:29;2.33;;;2.13;;
46505;SDS011;32220;49.808;9.968;2022-10-16T19:55:57;2.80;;;2.60;;
46505;SDS011;32220;49.808;9.968;2022-10-16T19:58:25;2.70;;;2.50;;
46505;SDS011;32220;49.808;9.968;2022-10-16T20:00:53;6.43;;;3.80;;
46505;SDS011;32220;49.808;9.968;2022-10-16T20:03:22;3.47;;;3.17;;
46505;SDS011;32220;49.808;9.968;2022-10-16T20:05:50;4.50;;;3.63;;
46505;SDS011;32220;49.808;9.968;2022-10-16T20:08:19;4.47;;;4.07;;
46505;SDS011;32220;49.808;9.968;2022-10-16T20:10:48;5.10;;;4.27;;
46505;SDS011;32220;49.808;9.968;2022-10-16T20:13:16;5.30;;;4.80;;
46505;SDS011;32220;49.808;9.968;2022-10-16T20:15:45;5.03;;;3.97;;
46505;SDS011;32220;49.808;9.968;2022-10-16T20:18:13;4.93;;;3.40;;
46505;SDS011;32220;49.808;9.968;2022-10-16T20:20:44;3.50;;;3.20;;
46505;SDS011;32220;49.808;9.968;2022-10-16T20:23:13;4.60;;;3.43;;
46505;SDS011;32220;49.808;9.968;2022-10-16T20:25:41;3.70;;;3.23;;
46505;SDS011;32220;49.808;9.968;2022-10-16T20:28:10;3.67;;;3.37;;
46505;SDS011;32220;49.808;9.968;2022-10-16T20:30:40;3.43;;;2.50;;
46505;SDS011;32220;49.808;9.968;2022-10-16T20:33:09;3.63;;;3.27;;
46505;SDS011;32220;49.808;9.968;2022-10-16T20:35:38;3.90;;;3.50;;
46505;SDS011;32220;49.808;9.968;2022-10-16T20:38:09;4.20;;;3.43;;
46505;SDS011;32220;49.808;9.968;2022-10-16T20:40:38;3.80;;;3.50;;
46505;SDS011;32220;49.808;9.968;2022-10-16T20:43:09;3.13;;;2.83;;
46505;SDS011;32220;49.808;9.968;2022-10-16T20:45:38;3.60;;;3.30;;
46505;SDS011;32220;49.808;9.968;2022-10-16T20:48:06;4.40;;;3.20;;
46505;SDS011;32220;49.808;9.968;2022-10-16T20:50:36;5.50;;;3.97;;
46505;SDS011;32220;49.808;9.968;2022-10-16T20:53:04;4.20;;;3.80;;
46505;SDS011;32220;49.808;9.968;2022-10-16T20:55:34;3.80;;;3.50;;
46505;SDS011;32220;49.808;9.968;2022-10-16T20:58:03;3.60;;;3.30;;
46505;SDS011;32220;49.808;9.968;2022-10-16T21:00:31;4.10;;;3.70;;
46505;SDS011;32220;49.808;9.968;2022-10-16T21:02:59;4.10;;;3.70;;
46505;SDS011;32220;49.808;9.968;2022-10-16T21:05:27;4.07;;;3.37;;
46505;SDS011;32220;49.808;9.968;2022-10-16T21:07:56;4.13;;;3.73;;
46505;SDS011;32220;49.808;9.968;2022-10-16T21:10:24;3.40;;;3.10;;
46505;SDS011;32220;49.808;9.968;2022-10-16T21:12:53;4.23;;;3.83;;
46505;SDS011;32220;49.808;9.968;2022-10-16T21:15:22;3.50;;;3.20;;
46505;SDS011;32220;49.808;9.968;2022-10-16T21:17:49;3.83;;;3.30;;
46505;SDS011;32220;49.808;9.968;2022-10-16T21:20:18;4.73;;;3.23;;
46505;SDS011;32220;49.808;9.968;2022-10-16T21:22:45;3.23;;;2.90;;
46505;SDS011;32220;49.808;9.968;2022-10-16T21:25:13;3.60;;;3.30;;
46505;SDS011;32220;49.808;9.968;2022-10-16T21:27:41;3.13;;;2.87;;
46505;SDS011;32220;49.808;9.968;2022-10-16T21:30:10;3.00;;;2.80;;
46505;SDS011;32220;49.808;9.968;2022-10-16T21:32:38;3.67;;;2.83;;
46505;SDS011;32220;49.808;9.968;2022-10-16T21:35:06;3.70;;;3.13;;
46505;SDS011;32220;49.808;9.968;2022-10-16T21:37:34;4.83;;;3.10;;
46505;SDS011;32220;49.808;9.968;2022-10-16T21:40:02;4.27;;;3.10;;
46505;SDS011;32220;49.808;9.968;2022-10-16T21:42:30;2.90;;;2.70;;
46505;SDS011;32220;49.808;9.968;2022-10-16T21:44:57;4.23;;;3.20;;
46505;SDS011;32220;49.808;9.968;2022-10-16T21:47:27;2.97;;;2.67;;
46505;SDS011;32220;49.808;9.968;2022-10-16T21:49:54;2.80;;;2.60;;
46505;SDS011;32220;49.808;9.968;2022-10-16T21:52:22;3.77;;;3.17;;
46505;SDS011;32220;49.808;9.968;2022-10-16T21:54:50;3.00;;;2.70;;
46505;SDS011;32220;49.808;9.968;2022-10-16T21:57:17;2.93;;;2.73;;
46505;SDS011;32220;49.808;9.968;2022-10-16T21:59:45;2.60;;;2.40;;
46505;SDS011;32220;49.808;9.968;2022-10-16T22:02:12;4.33;;;3.10;;
46505;SDS011;32220;49.808;9.968;2022-10-16T22:04:41;3.73;;;3.43;;
46505;SDS011;32220;49.808;9.968;2022-10-16T22:07:09;4.00;;;2.73;;
46505;SDS011;32220;49.808;9.968;2022-10-16T22:09:37;3.27;;;2.97;;
46505;SDS011;32220;49.808;9.968;2022-10-16T22:12:05;4.33;;;3.30;;
46505;SDS011;32220;49.808;9.968;2022-10-16T22:14:32;3.20;;;2.90;;
46505;SDS011;32220;49.808;9.968;2022-10-16T22:17:00;3.47;;;3.17;;
46505;SDS011;32220;49.808;9.968;2022-10-16T22:19:28;4.10;;;3.70;;
46505;SDS011;32220;49.808;9.968;2022-10-16T22:21:57;3.50;;;3.20;;
46505;SDS011;32220;49.808;9.968;2022-10-16T22:24:26;3.23;;;2.93;;
46505;SDS011;32220;49.808;9.968;2022-10-16T22:26:53;2.90;;;2.63;;
46505;SDS011;32220;49.808;9.968;2022-10-16T22:29:21;2.63;;;2.43;;
46505;SDS011;32220;49.808;9.968;2022-10-16T22:31:50;3.00;;;2.77;;
46505;SDS011;32220;49.808;9.968;2022-10-16T22:34:18;4.00;;;3.00;;
46505;SDS011;32220;49.808;9.968;2022-10-16T22:36:47;3.87;;;2.50;;
46505;SDS011;32220;49.808;9.968;2022-10-16T22:39:17;3.73;;;3.27;;
46505;SDS011;32220;49.808;9.968;2022-10-16T22:41:44;4.20;;;3.90;;
46505;SDS011;32220;49.808;9.968;2022-10-16T22:44:12;5.43;;;3.33;;
46505;SDS011;32220;49.808;9.968;2022-10-16T22:46:40;3.47;;;3.17;;
46505;SDS011;32220;49.808;9.968;2022-10-16T22:49:08;4.57;;;3.53;;
46505;SDS011;32220;49.808;9.968;2022-10-16T22:51:35;4.33;;;3.93;;
46505;SDS011;32220;49.808;9.968;2022-10-16T22:54:03;3.23;;;2.93;;
46505;SDS011;32220;49.808;9.968;2022-10-16T22:56:33;3.47;;;3.17;;
46505;SDS011;32220;49.808;9.968;2022-10-16T22:59:01;3.30;;;3.00;;
46505;SDS011;32220;49.808;9.968;2022-10-16T23:01:30;3.00;;;2.80;;
46505;SDS011;32220;49.808;9.968;2022-10-16T23:03:59;3.03;;;2.83;;
46505;SDS011;32220;49.808;9.968;2022-10-16T23:06:27;2.90;;;2.70;;
46505;SDS011;32220;49.808;9.968;2022-10-16T23:08:56;2.57;;;2.37;;
46505;SDS011;32220;49.808;9.968;2022-10-16T23:11:25;3.10;;;2.80;;
46505;SDS011;32220;49.808;9.968;2022-10-16T23:13:55;3.40;;;3.10;;
46505;SDS011;32220;49.808;9.968;2022-10-16T23:16:23;3.00;;;2.80;;
46505;SDS011;32220;49.808;9.968;2022-10-16T23:18:51;3.60;;;2.80;;
46505;SDS011;32220;49.808;9.968;2022-10-16T23:21:20;3.20;;;2.90;;
46505;SDS011;32220;49.808;9.968;2022-10-16T23:23:50;2.80;;;2.60;;
46505;SDS011;32220;49.808;9.968;2022-10-16T23:26:20;3.30;;;3.10;;
46505;SDS011;32220;49.808;9.968;2022-10-16T23:28:48;2.60;;;2.40;;
46505;SDS011;32220;49.808;9.968;2022-10-16T23:31:18;2.50;;;2.30;;
46505;SDS011;32220;49.808;9.968;2022-10-16T23:33:45;2.60;;;2.40;;
46505;SDS011;32220;49.808;9.968;2022-10-16T23:36:17;3.07;;;2.63;;
46505;SDS011;32220;49.808;9.968;2022-10-16T23:38:47;2.47;;;2.27;;
46505;SDS011;32220;49.808;9.968;2022-10-16T23:41:15;2.57;;;2.37;;
46505;SDS011;32220;49.808;9.968;2022-10-16T23:43:44;4.03;;;2.47;;
46505;SDS011;32220;49.808;9.968;2022-10-16T23:46:12;2.70;;;2.50;;
46505;SDS011;32220;49.808;9.968;2022-10-16T23:48:42;2.67;;;2.10;;
46505;SDS011;32220;49.808;9.968;2022-10-16T23:51:09;3.27;;;2.47;;
46505;SDS011;32220;49.808;9.968;2022-10-16T23:53:37;4.23;;;2.10;;
46505;SDS011;32220;49.808;9.968;2022-10-16T23:56:05;2.60;;;2.40;;
46505;SDS011;32220;49.808;9.968;2022-10-16T23:58:33;2.83;;;2.63;;
